Main page
METAR-TAF:

METAR-TAF

Airports :

Birmingham Airport

Birmingham, England

latitude: 52-27N, longitude: 001-44W, elevation: 99 m

Current weather observation

The report was made 36 minutes ago, at 13:50 UTC
Wind 10 kt from the South/Southwest, varying between South and West/Southwest
Temperature 14°C
Humidity 67%
Pressure 1019 hPa
Visibility 10 km or more
Scattered clouds at a height of 2600 ft

METAR: EGBB 141350Z 20010KT 170V240 9999 SCT026 14/08 Q1019

Time: 14:26 (14:26 UTC)

Forecast

The report was made 3 hours and 24 minutes ago, at 11:02 UTC
Forecast valid from 14 at 12 UTC to 15 at 12 UTC
Wind 12 kt from the South
Visibility 10 km or more
Scattered clouds at a height of 2500 ft
Temporary
from 15 at 04 UTC to 15 at 12 UTC
Visibility: 8000 m
Broken clouds at a height of 1200 ft
Probability 30% :
Temporary
from 15 at 04 UTC to 15 at 12 UTC
Broken clouds at a height of 800 ft

TAF: EGBB 141102Z 1412/1512 19012KT 9999 SCT025 TEMPO 1504/1512 8000 BKN012 PROB30 TEMPO 1504/1512 BKN008

Weather observations and forecasts of more than 4000 airports (METAR and TAF reports).

The available stations are represented by yellow and red dots on the map.

Hover mouse over dot to see the name of the station.

Then click to see weather observations and forecasts.

To change the map : click on the green buttons with a black cross to zoom in, on the green button with a dash to zoom out, or on the green arrows for adjacent maps.


METAR-TAF: